Time;durP1;ratioP1;P1;durP2;ratioP2;P2;SDS_P1;SDS_P2;PMS_P1;PMS_P2;Temp;Humidity;BMP_temperature;BMP_pressure;BME280_temperature;BME280_humidity;BME280_pressure;Samples;Min_cycle;Max_cycle;Signal;HPM_P1;HPM_P2
2022/04/14 00:01:25;;;;;;;26.70;16.17;;;9.30;81.50;;;;;;5061493;28;20172;-69
2022/04/14 00:03:50;;;;;;;23.77;15.00;;;9.20;81.50;;;;;;5065732;28;20036;-69
2022/04/14 00:06:16;;;;;;;27.17;15.73;;;9.10;81.60;;;;;;5046292;28;20336;-69
2022/04/14 00:08:42;;;;;;;24.60;15.37;;;9.10;81.60;;;;;;5060420;28;20507;-69
2022/04/14 00:11:08;;;;;;;27.27;16.30;;;9.00;81.50;;;;;;5040261;28;20047;-69
2022/04/14 00:13:34;;;;;;;25.02;16.08;;;8.90;81.80;;;;;;5056035;28;20040;-69
2022/04/14 00:16:00;;;;;;;31.67;18.17;;;8.90;82.10;;;;;;5013206;28;20473;-69
2022/04/14 00:18:25;;;;;;;28.67;17.80;;;8.80;82.30;;;;;;5047001;28;20048;-69
2022/04/14 00:20:51;;;;;;;28.50;17.87;;;8.80;82.30;;;;;;5037645;28;20123;-69
2022/04/14 00:23:17;;;;;;;31.60;18.30;;;8.80;83.60;;;;;;5037260;28;20063;-69
2022/04/14 00:25:42;;;;;;;30.23;17.43;;;8.70;83.70;;;;;;5038037;28;20123;-69
2022/04/14 00:28:08;;;;;;;27.00;18.73;;;8.70;83.50;;;;;;5044502;28;20076;-69
2022/04/14 00:30:34;;;;;;;31.40;19.43;;;8.60;83.20;;;;;;5054199;28;20041;-69
2022/04/14 00:32:59;;;;;;;28.03;18.70;;;8.60;84.30;;;;;;5021724;28;20631;-69
2022/04/14 00:35:25;;;;;;;31.97;19.37;;;8.60;83.90;;;;;;5031897;28;20401;-69
2022/04/14 00:37:51;;;;;;;27.93;18.77;;;8.50;83.80;;;;;;5042933;28;20515;-69
2022/04/14 00:40:16;;;;;;;29.50;17.87;;;8.50;83.90;;;;;;5026015;28;20040;-69
2022/04/14 00:42:42;;;;;;;30.73;19.50;;;8.40;83.40;;;;;;5042858;28;20140;-69
2022/04/14 00:45:09;;;;;;;32.33;19.40;;;8.30;83.40;;;;;;5059959;28;20041;-69
2022/04/14 00:47:36;;;;;;;32.55;20.30;;;8.30;84.00;;;;;;5061048;28;20036;-69
2022/04/14 00:50:03;;;;;;;29.75;18.40;;;8.20;83.90;;;;;;5047581;28;20043;-69
2022/04/14 00:52:28;;;;;;;28.23;17.17;;;8.10;83.70;;;;;;5039273;28;20212;-69
2022/04/14 00:54:54;;;;;;;31.63;19.30;;;8.10;83.50;;;;;;5015851;28;20520;-69
2022/04/14 00:57:20;;;;;;;35.40;22.47;;;8.00;83.90;;;;;;5026259;28;20083;-69
2022/04/14 00:59:46;;;;;;;39.63;20.10;;;8.00;84.50;;;;;;5032802;28;20064;-69
2022/04/14 01:02:12;;;;;;;35.20;22.23;;;7.90;84.30;;;;;;5056770;28;20037;-70
2022/04/14 01:04:38;;;;;;;36.38;22.50;;;7.90;84.50;;;;;;5028042;28;20037;-70
2022/04/14 01:07:07;;;;;;;37.03;20.77;;;7.90;84.90;;;;;;5022521;28;20292;-69
2022/04/14 01:09:36;;;;;;;38.58;22.95;;;7.90;84.50;;;;;;5060183;28;20044;-69
2022/04/14 01:12:05;;;;;;;40.05;23.48;;;7.80;84.30;;;;;;5047865;28;20111;-70
2022/04/14 01:14:35;;;;;;;34.63;21.88;;;7.80;84.20;;;;;;5036832;28;20443;-70
2022/04/14 01:17:07;;;;;;;35.35;22.95;;;7.80;84.90;;;;;;5058764;28;20036;-69
2022/04/14 01:19:33;;;;;;;35.95;23.92;;;7.80;84.60;;;;;;5045198;28;20476;-69
2022/04/14 01:22:16;;;;;;;36.17;22.02;;;7.70;84.70;;;;;;5049732;28;20043;-69
2022/04/14 01:24:42;;;;;;;37.35;22.30;;;7.70;84.70;;;;;;5055606;28;20582;-69
2022/04/14 01:27:08;;;;;;;35.22;21.75;;;7.70;84.50;;;;;;5046045;28;20358;-69
2022/04/14 01:29:34;;;;;;;32.07;20.73;;;7.70;84.30;;;;;;5059121;28;20048;-69
2022/04/14 01:32:02;;;;;;;31.07;19.47;;;7.70;84.20;;;;;;5062738;28;20055;-69
2022/04/14 01:34:30;;;;;;;34.05;20.73;;;7.60;84.10;;;;;;5042669;28;20044;-69
2022/04/14 01:37:00;;;;;;;29.00;18.40;;;7.60;84.00;;;;;;5056037;28;20045;-69
2022/04/14 01:39:29;;;;;;;30.67;19.88;;;7.50;84.00;;;;;;5033053;28;20039;-69
2022/04/14 01:41:55;;;;;;;33.97;22.30;;;7.50;84.00;;;;;;5054902;28;20032;-69
2022/04/14 01:44:21;;;;;;;34.72;21.55;;;7.50;84.00;;;;;;5065550;28;20123;-69
2022/04/14 01:46:47;;;;;;;37.10;22.40;;;7.50;84.00;;;;;;5039891;28;20170;-69
2022/04/14 01:49:13;;;;;;;33.87;21.50;;;7.50;84.10;;;;;;5054177;28;20504;-69
2022/04/14 01:51:39;;;;;;;38.67;23.53;;;7.50;84.20;;;;;;5064396;28;20040;-69
2022/04/14 01:54:05;;;;;;;36.88;24.80;;;7.50;84.30;;;;;;5067195;28;20051;-69
2022/04/14 01:56:31;;;;;;;39.22;25.17;;;7.50;84.10;;;;;;5063743;28;20099;-69
2022/04/14 01:58:57;;;;;;;42.92;25.10;;;7.50;84.50;;;;;;5039068;28;20075;-69
2022/04/14 02:01:24;;;;;;;34.83;22.75;;;7.40;84.70;;;;;;5033755;28;20041;-69
2022/04/14 02:03:51;;;;;;;35.05;22.60;;;7.40;84.40;;;;;;5056589;28;20037;-69
2022/04/14 02:06:17;;;;;;;41.47;24.98;;;7.30;84.40;;;;;;5055376;28;20437;-69
2022/04/14 02:08:43;;;;;;;39.67;24.97;;;7.30;84.40;;;;;;5067245;28;20139;-69
2022/04/14 02:11:13;;;;;;;45.80;27.55;;;7.20;84.30;;;;;;5037075;28;20287;-69
2022/04/14 02:13:39;;;;;;;40.90;24.60;;;7.20;84.40;;;;;;5047021;28;20492;-69
2022/04/14 02:16:05;;;;;;;43.40;27.00;;;7.20;84.70;;;;;;5063396;28;20047;-69
2022/04/14 02:18:31;;;;;;;37.50;24.27;;;7.20;85.00;;;;;;5051485;28;20041;-69
2022/04/14 02:20:56;;;;;;;34.35;22.67;;;7.20;85.10;;;;;;5052407;28;20040;-69
2022/04/14 02:23:23;;;;;;;32.47;22.73;;;7.10;84.80;;;;;;5050129;28;21305;-69
2022/04/14 02:25:48;;;;;;;42.40;24.10;;;7.00;84.70;;;;;;5026329;28;20085;-69
2022/04/14 02:28:14;;;;;;;37.20;22.97;;;7.00;84.80;;;;;;5069318;28;20036;-69
2022/04/14 02:30:40;;;;;;;35.03;23.67;;;7.00;84.90;;;;;;5059930;28;20485;-69
2022/04/14 02:33:06;;;;;;;37.23;23.73;;;7.00;85.00;;;;;;5032611;28;20036;-70
2022/04/14 02:35:32;;;;;;;49.80;28.70;;;7.00;85.00;;;;;;5071340;28;20040;-69
2022/04/14 02:37:57;;;;;;;43.67;25.40;;;6.90;85.00;;;;;;5060494;28;20071;-69
2022/04/14 02:40:24;;;;;;;54.07;28.87;;;6.90;85.10;;;;;;5060133;28;20555;-69
2022/04/14 02:42:54;;;;;;;45.88;28.45;;;6.90;85.10;;;;;;5055215;28;20133;-69
2022/04/14 02:45:24;;;;;;;48.78;28.38;;;7.00;85.70;;;;;;5070135;28;20412;-69
2022/04/14 02:47:50;;;;;;;53.00;30.65;;;6.90;85.40;;;;;;5051843;28;20040;-69
2022/04/14 02:50:16;;;;;;;39.70;26.08;;;6.90;85.40;;;;;;5058632;28;20637;-69
2022/04/14 02:52:42;;;;;;;38.07;23.83;;;6.90;85.60;;;;;;5068846;28;20040;-69
2022/04/14 02:55:08;;;;;;;41.10;24.47;;;6.90;85.30;;;;;;5065812;28;20044;-69
2022/04/14 02:57:34;;;;;;;40.10;23.80;;;6.90;85.30;;;;;;5041313;28;20321;-69
2022/04/14 03:00:02;;;;;;;35.78;24.80;;;6.80;85.20;;;;;;5047258;28;20063;-69
2022/04/14 03:02:28;;;;;;;44.50;26.88;;;6.80;85.10;;;;;;5060153;28;20458;-69
2022/04/14 03:04:54;;;;;;;54.57;29.10;;;6.80;85.10;;;;;;5043587;28;20032;-69
2022/04/14 03:07:22;;;;;;;49.23;29.13;;;6.70;85.10;;;;;;5032083;28;20044;-69
2022/04/14 03:09:48;;;;;;;47.88;26.48;;;6.70;85.30;;;;;;5028668;28;20039;-69
2022/04/14 03:12:14;;;;;;;33.22;22.00;;;6.70;85.20;;;;;;5035694;28;20048;-69
2022/04/14 03:14:40;;;;;;;42.10;25.30;;;6.60;85.30;;;;;;5035473;28;20040;-69
2022/04/14 03:17:05;;;;;;;37.30;22.77;;;6.60;85.20;;;;;;5044878;28;20063;-69
2022/04/14 03:19:31;;;;;;;63.03;32.03;;;6.60;85.30;;;;;;5053018;28;20173;-69
2022/04/14 03:21:58;;;;;;;42.20;26.07;;;6.60;85.30;;;;;;5063263;28;20048;-70
2022/04/14 03:24:24;;;;;;;63.45;33.60;;;6.60;85.80;;;;;;5037597;28;20513;-70
2022/04/14 03:26:50;;;;;;;52.53;28.60;;;6.60;85.70;;;;;;5064442;28;20036;-70
2022/04/14 03:29:16;;;;;;;74.97;34.33;;;6.60;85.90;;;;;;5052804;28;20113;-70
2022/04/14 03:31:42;;;;;;;38.03;26.03;;;6.60;85.90;;;;;;5040380;28;20123;-70
2022/04/14 03:34:08;;;;;;;49.77;29.67;;;6.60;85.80;;;;;;5055734;28;20051;-70
2022/04/14 03:36:33;;;;;;;37.53;24.90;;;6.60;85.70;;;;;;5031908;28;20118;-70
2022/04/14 03:38:59;;;;;;;42.40;25.00;;;6.60;85.80;;;;;;5042438;28;20091;-70
2022/04/14 03:41:25;;;;;;;61.33;28.80;;;6.60;85.60;;;;;;5064412;28;20044;-70
2022/04/14 03:43:50;;;;;;;34.77;22.57;;;6.60;85.80;;;;;;5064310;28;20127;-70
2022/04/14 03:46:18;;;;;;;38.93;26.30;;;6.60;86.00;;;;;;5051845;28;20128;-70
2022/04/14 03:48:43;;;;;;;67.30;32.70;;;6.70;86.10;;;;;;5066982;28;20056;-70
2022/04/14 03:51:09;;;;;;;54.53;29.73;;;6.80;86.10;;;;;;5052204;28;20431;-70
2022/04/14 03:53:35;;;;;;;64.07;32.37;;;6.80;86.40;;;;;;5053087;28;20166;-70
2022/04/14 03:56:01;;;;;;;47.10;28.63;;;6.90;86.40;;;;;;5049975;28;20040;-70
2022/04/14 03:58:27;;;;;;;51.10;30.33;;;6.90;86.30;;;;;;5047434;28;20047;-70
2022/04/14 04:00:53;;;;;;;54.43;31.03;;;7.00;86.20;;;;;;5054135;28;20037;-70
2022/04/14 04:03:18;;;;;;;52.90;30.77;;;7.00;86.50;;;;;;5062128;28;20489;-70
2022/04/14 04:05:44;;;;;;;53.43;30.70;;;7.00;86.50;;;;;;5033947;28;20039;-70
2022/04/14 04:08:10;;;;;;;78.23;36.83;;;7.00;86.50;;;;;;5032879;28;20570;-70
2022/04/14 04:10:36;;;;;;;47.63;29.13;;;7.00;86.40;;;;;;5057648;28;20503;-70
2022/04/14 04:13:01;;;;;;;43.77;27.97;;;6.90;86.30;;;;;;5048808;28;20408;-70
2022/04/14 04:15:27;;;;;;;40.80;26.13;;;6.90;86.20;;;;;;5050062;28;20051;-70
2022/04/14 04:17:53;;;;;;;42.03;26.87;;;6.80;86.10;;;;;;5046291;28;20183;-70
2022/04/14 04:20:20;;;;;;;44.13;26.77;;;6.70;86.00;;;;;;5032574;28;20037;-70
2022/04/14 04:22:46;;;;;;;44.72;26.92;;;6.70;86.00;;;;;;5036544;28;20050;-70
2022/04/14 04:25:11;;;;;;;44.80;27.33;;;6.60;86.00;;;;;;5063174;28;20489;-70
2022/04/14 04:27:37;;;;;;;67.23;33.90;;;6.60;86.00;;;;;;5049528;28;20055;-70
2022/04/14 04:30:05;;;;;;;44.73;28.13;;;6.50;86.60;;;;;;5068395;28;20490;-70
2022/04/14 04:32:33;;;;;;;52.88;30.10;;;6.50;86.50;;;;;;5048322;28;20117;-70
2022/04/14 04:35:06;;;;;;;53.47;31.98;;;6.50;86.50;;;;;;5040347;28;20043;-70
2022/04/14 04:37:32;;;;;;;75.85;38.42;;;6.50;86.50;;;;;;5046453;28;20035;-70
2022/04/14 04:39:58;;;;;;;90.70;41.20;;;6.50;86.60;;;;;;5051752;28;20043;-70
2022/04/14 04:42:24;;;;;;;61.77;32.67;;;6.60;87.10;;;;;;5045715;28;20047;-70
2022/04/14 04:44:49;;;;;;;77.90;38.37;;;6.60;87.60;;;;;;5049036;28;20055;-70
2022/04/14 04:47:16;;;;;;;61.53;33.10;;;6.60;87.50;;;;;;5038409;28;20115;-69
2022/04/14 04:49:42;;;;;;;62.42;34.05;;;6.60;87.30;;;;;;5044211;28;20130;-69
2022/04/14 04:52:08;;;;;;;79.50;38.27;;;6.60;87.10;;;;;;5051539;28;20119;-69
2022/04/14 04:54:34;;;;;;;78.90;37.45;;;6.60;86.90;;;;;;5062779;28;20059;-70
2022/04/14 04:57:00;;;;;;;71.03;36.60;;;6.60;87.30;;;;;;5042782;28;20115;-70
2022/04/14 04:59:26;;;;;;;54.40;31.73;;;6.60;87.30;;;;;;5054535;28;20127;-70
2022/04/14 05:01:52;;;;;;;84.93;38.00;;;6.60;87.20;;;;;;5049507;28;20317;-70
2022/04/14 05:04:17;;;;;;;66.50;33.33;;;6.60;87.10;;;;;;5030552;28;20040;-70
2022/04/14 05:06:43;;;;;;;48.77;29.27;;;6.50;87.00;;;;;;5045635;28;20032;-69
2022/04/14 05:09:09;;;;;;;59.47;31.27;;;6.50;86.90;;;;;;5053647;28;20040;-69
2022/04/14 05:11:35;;;;;;;64.17;34.10;;;6.50;87.00;;;;;;5029108;28;20063;-70
2022/04/14 05:14:01;;;;;;;67.80;35.53;;;6.50;87.00;;;;;;5041936;28;20485;-70
2022/04/14 05:16:27;;;;;;;63.53;34.03;;;6.60;87.10;;;;;;5042763;28;20101;-70
2022/04/14 05:18:53;;;;;;;65.23;35.07;;;6.70;87.10;;;;;;5066949;28;20051;-70
2022/04/14 05:21:19;;;;;;;67.17;36.37;;;6.80;87.30;;;;;;5044936;28;20043;-70
2022/04/14 05:23:44;;;;;;;59.10;32.20;;;6.90;87.30;;;;;;5045145;28;20056;-70
2022/04/14 05:26:10;;;;;;;57.50;33.67;;;7.00;87.20;;;;;;5061801;28;20558;-70
2022/04/14 05:28:36;;;;;;;54.50;31.43;;;7.10;87.20;;;;;;5059725;28;20067;-69
2022/04/14 05:31:02;;;;;;;74.50;39.10;;;7.20;87.10;;;;;;5044480;28;20071;-69
2022/04/14 05:33:28;;;;;;;67.95;36.03;;;7.30;87.20;;;;;;5039240;28;20044;-69
2022/04/14 05:35:54;;;;;;;71.73;38.60;;;7.40;87.40;;;;;;5050286;28;20429;-70
2022/04/14 05:38:20;;;;;;;60.17;34.87;;;7.60;87.70;;;;;;5060985;28;20300;-70
2022/04/14 05:40:46;;;;;;;74.97;37.97;;;7.70;87.90;;;;;;5064592;28;20051;-70
2022/04/14 05:43:19;;;;;;;67.50;37.43;;;7.80;87.80;;;;;;5054736;28;20040;-70
2022/04/14 05:45:47;;;;;;;74.65;40.17;;;7.90;87.70;;;;;;5030634;28;20033;-70
2022/04/14 05:48:16;;;;;;;63.78;35.55;;;8.10;87.70;;;;;;5060391;28;20066;-70
2022/04/14 05:50:43;;;;;;;63.47;38.05;;;8.20;88.00;;;;;;5042056;28;20043;-70
2022/04/14 05:53:10;;;;;;;64.97;37.53;;;8.20;88.10;;;;;;5058671;28;20041;-70
2022/04/14 05:55:36;;;;;;;67.65;38.03;;;8.30;88.00;;;;;;5062200;28;20408;-70
2022/04/14 05:58:05;;;;;;;60.40;35.27;;;8.30;87.90;;;;;;5044414;28;20040;-69
2022/04/14 06:00:32;;;;;;;61.03;35.38;;;8.30;87.80;;;;;;5064780;28;20032;-69
2022/04/14 06:02:59;;;;;;;59.78;33.75;;;8.30;87.60;;;;;;5034396;28;20071;-70
2022/04/14 06:05:30;;;;;;;57.65;35.95;;;8.30;87.50;;;;;;5062150;28;20051;-70
2022/04/14 06:07:56;;;;;;;68.10;37.55;;;8.20;87.40;;;;;;5041344;28;20127;-70
2022/04/14 06:10:26;;;;;;;68.88;36.70;;;8.20;87.50;;;;;;5049753;28;20975;-70
2022/04/14 06:12:54;;;;;;;67.55;36.72;;;8.20;87.70;;;;;;5062412;28;20047;-70
2022/04/14 06:15:20;;;;;;;67.70;37.72;;;8.20;87.70;;;;;;5052142;28;20846;-70
2022/04/14 06:17:46;;;;;;;74.57;38.83;;;8.30;88.00;;;;;;5048612;28;20055;-70
2022/04/14 06:20:12;;;;;;;59.07;35.20;;;8.40;87.90;;;;;;5059777;28;20040;-70
2022/04/14 06:22:39;;;;;;;59.53;36.40;;;8.60;88.00;;;;;;5061597;28;20072;-70
2022/04/14 06:25:06;;;;;;;59.30;34.97;;;8.70;88.10;;;;;;5058154;28;20507;-70
2022/04/14 06:27:32;;;;;;;64.00;34.90;;;8.80;88.00;;;;;;5042274;28;20046;-70
2022/04/14 06:29:58;;;;;;;66.38;33.38;;;8.90;87.90;;;;;;5057909;28;20079;-71
2022/04/14 06:32:24;;;;;;;54.90;31.03;;;9.00;87.80;;;;;;5059525;28;20072;-70
2022/04/14 06:34:49;;;;;;;55.23;32.57;;;9.10;88.00;;;;;;5035999;28;20039;-70
2022/04/14 06:37:15;;;;;;;55.70;32.37;;;9.20;87.80;;;;;;5043620;28;20123;-70
2022/04/14 06:39:41;;;;;;;44.53;29.57;;;9.30;87.60;;;;;;5066271;28;20584;-70
2022/04/14 06:42:07;;;;;;;55.13;29.87;;;9.40;87.30;;;;;;5034307;28;20049;-70
2022/04/14 06:44:33;;;;;;;42.55;26.95;;;9.50;87.10;;;;;;5049530;28;20036;-70
2022/04/14 06:46:58;;;;;;;47.97;26.53;;;9.60;86.80;;;;;;5020310;28;20032;-70
2022/04/14 06:49:24;;;;;;;40.23;26.83;;;9.70;86.70;;;;;;5050412;28;20264;-70
2022/04/14 06:51:49;;;;;;;44.63;26.80;;;9.80;86.60;;;;;;5051446;28;20048;-70
2022/04/14 06:54:16;;;;;;;40.97;25.50;;;9.90;86.40;;;;;;5022522;28;20041;-70
2022/04/14 06:56:42;;;;;;;42.20;23.85;;;10.00;86.40;;;;;;5037491;28;20086;-70
2022/04/14 06:59:07;;;;;;;36.20;23.50;;;10.10;86.30;;;;;;5045059;28;20579;-70
2022/04/14 07:01:33;;;;;;;38.00;23.93;;;10.20;86.20;;;;;;5054084;28;20047;-70
2022/04/14 07:03:59;;;;;;;36.57;22.10;;;10.30;86.00;;;;;;5064001;28;20036;-70
2022/04/14 07:06:25;;;;;;;38.07;22.07;;;10.40;85.60;;;;;;5044747;28;20040;-70
2022/04/14 07:08:52;;;;;;;34.17;21.25;;;10.50;85.20;;;;;;5039895;28;20161;-70
2022/04/14 07:11:17;;;;;;;35.53;20.53;;;10.60;85.20;;;;;;5048067;28;20083;-70
2022/04/14 07:13:43;;;;;;;31.83;20.10;;;10.60;85.00;;;;;;5057189;28;20072;-70
2022/04/14 07:16:09;;;;;;;31.77;19.53;;;10.70;84.80;;;;;;5052216;28;20051;-70
2022/04/14 07:18:34;;;;;;;30.13;18.80;;;10.80;84.70;;;;;;5057541;28;20044;-71
2022/04/14 07:21:00;;;;;;;30.53;19.90;;;10.90;84.60;;;;;;5043387;28;20047;-70
2022/04/14 07:23:27;;;;;;;29.27;18.83;;;11.00;84.30;;;;;;5053024;28;20178;-70
2022/04/14 07:25:53;;;;;;;33.85;20.23;;;11.10;84.20;;;;;;5053161;28;20045;-71
2022/04/14 07:28:19;;;;;;;28.57;17.70;;;11.20;84.00;;;;;;5056333;28;20060;-70
2022/04/14 07:30:44;;;;;;;33.30;19.63;;;11.30;83.70;;;;;;5052976;28;20036;-70
2022/04/14 07:33:10;;;;;;;30.67;18.90;;;11.40;83.20;;;;;;5039257;28;20051;-70
2022/04/14 07:35:36;;;;;;;27.63;18.93;;;11.50;83.30;;;;;;5060398;28;20497;-71
2022/04/14 07:38:01;;;;;;;27.63;18.40;;;11.50;83.20;;;;;;5055390;28;20043;-70
2022/04/14 07:40:27;;;;;;;30.67;18.30;;;11.60;82.80;;;;;;5043139;28;20036;-70
2022/04/14 07:42:56;;;;;;;31.60;18.50;;;11.70;82.80;;;;;;5046050;28;20032;-71
2022/04/14 07:45:22;;;;;;;29.13;19.10;;;11.80;82.80;;;;;;5058620;28;20336;-70
2022/04/14 07:47:48;;;;;;;28.73;18.10;;;11.90;82.50;;;;;;5033997;28;20040;-70
2022/04/14 07:50:16;;;;;;;30.43;18.67;;;12.00;82.40;;;;;;5050522;28;20386;-70
2022/04/14 07:52:47;;;;;;;29.48;19.08;;;12.10;82.00;;;;;;5032637;28;20070;-70
2022/04/14 07:55:21;;;;;;;30.50;17.80;;;12.20;81.70;;;;;;5037687;28;20666;-70
2022/04/14 07:57:47;;;;;;;25.70;17.40;;;12.30;81.60;;;;;;5064495;28;20387;-70
2022/04/14 08:00:13;;;;;;;26.47;16.67;;;12.40;80.40;;;;;;5033611;28;20155;-70
2022/04/14 08:02:53;;;;;;;25.40;16.43;;;12.40;79.70;;;;;;5054624;28;20305;-70
2022/04/14 08:05:29;;;;;;;25.77;16.70;;;12.50;80.20;;;;;;5052590;28;20309;-70
2022/04/14 08:07:56;;;;;;;22.57;15.87;;;12.50;80.00;;;;;;5033216;28;20669;-70
2022/04/14 08:10:21;;;;;;;25.03;16.80;;;12.60;79.90;;;;;;5044584;28;20316;-70
2022/04/14 08:12:47;;;;;;;23.97;15.10;;;12.70;79.90;;;;;;5034400;28;20393;-70
2022/04/14 08:15:13;;;;;;;23.60;15.77;;;12.80;79.90;;;;;;5033969;28;20399;-71
2022/04/14 08:17:43;;;;;;;23.00;16.07;;;12.90;79.60;;;;;;5050237;28;20052;-70
2022/04/14 08:20:11;;;;;;;22.83;14.33;;;13.10;79.70;;;;;;5051966;28;20279;-70
2022/04/14 08:22:51;;;;;;;24.60;14.97;;;13.10;77.50;;;;;;5033235;28;20303;-70
2022/04/14 08:25:25;;;;;;;20.20;14.80;;;13.20;77.80;;;;;;5049152;28;20283;-70
2022/04/14 08:27:52;;;;;;;21.60;14.00;;;13.30;78.00;;;;;;5029572;28;20337;-70
2022/04/14 08:30:20;;;;;;;21.00;13.47;;;13.40;77.90;;;;;;5049470;28;20275;-71
2022/04/14 08:32:47;;;;;;;18.70;13.80;;;13.50;77.10;;;;;;5032712;28;20298;-70
2022/04/14 08:35:14;;;;;;;19.87;13.87;;;13.60;76.60;;;;;;5050745;28;20416;-71
2022/04/14 08:37:41;;;;;;;19.33;13.53;;;13.70;76.30;;;;;;5004535;28;20302;-71
2022/04/14 08:40:10;;;;;;;19.83;13.17;;;13.70;75.30;;;;;;5050834;28;20762;-72
2022/04/14 08:42:41;;;;;;;19.97;12.73;;;13.80;75.80;;;;;;5053023;28;20313;-72
2022/04/14 08:45:13;;;;;;;17.00;10.93;;;13.90;75.20;;;;;;5061529;28;20278;-72
2022/04/14 08:47:41;;;;;;;15.93;11.10;;;14.00;74.40;;;;;;5050042;28;20322;-70
2022/04/14 08:50:12;;;;;;;19.77;12.17;;;14.00;73.70;;;;;;5062010;28;20278;-70
2022/04/14 08:52:39;;;;;;;19.23;12.13;;;14.10;74.30;;;;;;5032140;28;20385;-70
2022/04/14 08:55:11;;;;;;;16.07;10.70;;;14.20;74.70;;;;;;5048777;28;20720;-70
2022/04/14 08:57:37;;;;;;;17.77;11.93;;;14.20;73.60;;;;;;5048201;28;20602;-70
2022/04/14 09:00:06;;;;;;;16.43;11.50;;;14.40;73.40;;;;;;5050040;28;20283;-70
2022/04/14 09:02:33;;;;;;;14.60;10.70;;;14.50;73.30;;;;;;5052808;28;20302;-70
2022/04/14 09:04:59;;;;;;;15.57;10.10;;;14.60;72.70;;;;;;5054378;28;20275;-70
2022/04/14 09:07:25;;;;;;;13.87;9.90;;;14.70;72.00;;;;;;5032971;28;20321;-70
2022/04/14 09:09:51;;;;;;;12.83;8.83;;;14.90;72.60;;;;;;5033683;28;20322;-70
2022/04/14 09:12:18;;;;;;;16.97;9.33;;;14.90;71.60;;;;;;5032111;28;20036;-70
2022/04/14 09:14:45;;;;;;;12.63;8.57;;;15.00;71.70;;;;;;5048828;28;20363;-70
2022/04/14 09:17:11;;;;;;;13.63;8.60;;;15.10;71.20;;;;;;5016978;28;20322;-70
2022/04/14 09:19:38;;;;;;;14.77;9.23;;;15.10;69.60;;;;;;5052080;28;20325;-70
2022/04/14 09:22:08;;;;;;;15.67;9.10;;;15.20;69.00;;;;;;5033763;28;20064;-70
2022/04/14 09:24:47;;;;;;;14.80;9.57;;;15.20;68.90;;;;;;5048644;28;20712;-70
2022/04/14 09:27:26;;;;;;;11.10;8.37;;;15.30;68.40;;;;;;5032810;28;20282;-70
2022/04/14 09:29:54;;;;;;;13.40;8.93;;;15.40;68.50;;;;;;5031878;28;20321;-70
2022/04/14 09:32:35;;;;;;;13.30;8.43;;;15.50;67.40;;;;;;5048243;28;20290;-70
2022/04/14 09:35:04;;;;;;;14.13;9.10;;;15.50;66.60;;;;;;5048935;28;20348;-70
2022/04/14 09:37:31;;;;;;;12.03;7.67;;;15.50;67.40;;;;;;5031553;28;20299;-70
2022/04/14 09:39:57;;;;;;;9.37;6.83;;;15.50;67.10;;;;;;5049504;28;20293;-70
2022/04/14 09:42:26;;;;;;;13.77;7.37;;;15.50;66.90;;;;;;5032767;28;20298;-70
2022/04/14 09:44:52;;;;;;;8.87;6.23;;;15.50;66.90;;;;;;5050196;28;20286;-70
2022/04/14 09:47:38;;;;;;;10.10;6.63;;;15.60;67.20;;;;;;5055291;28;20334;-70
2022/04/14 09:50:05;;;;;;;10.25;5.88;;;15.70;67.70;;;;;;5068649;28;20654;-70
2022/04/14 09:52:30;;;;;;;8.20;4.13;;;15.90;67.20;;;;;;5049291;28;20045;-70
2022/04/14 09:55:16;;;;;;;6.20;3.83;;;16.00;65.60;;;;;;5023975;28;20290;-70
2022/04/14 09:57:42;;;;;;;6.03;4.07;;;16.00;64.50;;;;;;5052369;28;20048;-70
2022/04/14 10:00:08;;;;;;;10.30;4.73;;;16.00;65.00;;;;;;5026783;28;20691;-70
2022/04/14 10:02:36;;;;;;;7.03;3.13;;;16.10;65.80;;;;;;5035533;28;20043;-70
2022/04/14 10:05:04;;;;;;;8.47;3.40;;;16.10;63.40;;;;;;5049182;28;20286;-70
2022/04/14 10:07:30;;;;;;;6.30;2.87;;;16.10;63.50;;;;;;5020820;28;20283;-70
2022/04/14 10:09:55;;;;;;;11.23;5.17;;;16.00;64.00;;;;;;5063019;28;20316;-70
2022/04/14 10:12:24;;;;;;;7.63;4.43;;;16.10;64.50;;;;;;5043264;28;20493;-70
2022/04/14 10:14:56;;;;;;;8.23;4.33;;;16.10;63.10;;;;;;5046936;28;20048;-70
2022/04/14 10:17:26;;;;;;;7.50;4.57;;;15.90;62.10;;;;;;5058827;28;20286;-70
2022/04/14 10:19:52;;;;;;;8.23;3.43;;;15.80;63.40;;;;;;5032169;28;20693;-70
2022/04/14 10:22:19;;;;;;;7.87;3.93;;;15.80;63.80;;;;;;5031429;28;20302;-70
2022/04/14 10:24:50;;;;;;;10.50;5.03;;;15.90;63.40;;;;;;5047647;28;20354;-70
2022/04/14 10:27:17;;;;;;;8.13;5.77;;;15.90;63.00;;;;;;5032946;28;20283;-70
2022/04/14 10:29:43;;;;;;;10.70;6.33;;;15.90;63.40;;;;;;5034066;28;20290;-70
2022/04/14 10:32:12;;;;;;;13.43;6.57;;;16.00;64.00;;;;;;5034663;28;20290;-70
2022/04/14 10:34:38;;;;;;;11.43;5.27;;;16.10;64.40;;;;;;5047218;28;20850;-70
2022/04/14 10:37:07;;;;;;;8.53;5.20;;;16.10;62.60;;;;;;5052691;28;20365;-70
2022/04/14 10:39:38;;;;;;;8.90;5.33;;;15.90;62.00;;;;;;5035999;28;20291;-70
2022/04/14 10:42:07;;;;;;;10.53;6.23;;;15.80;63.10;;;;;;5046314;28;20309;-70
2022/04/14 10:44:50;;;;;;;8.63;4.60;;;15.80;63.90;;;;;;5046806;28;20283;-70
2022/04/14 10:47:54;;;;;;;6.60;4.20;;;15.80;63.30;;;;;;5054392;28;20404;-73
2022/04/14 10:50:34;;;;;;;8.13;4.67;;;15.80;63.20;;;;;;5040136;28;20315;-71
2022/04/14 10:53:06;;;;;;;8.17;5.00;;;15.70;63.10;;;;;;5045693;28;20378;-70
2022/04/14 10:55:47;;;;;;;9.07;4.97;;;15.90;63.80;;;;;;5046990;28;20299;-70
2022/04/14 10:58:35;;;;;;;10.93;5.40;;;16.10;63.80;;;;;;5055566;28;20774;-70
2022/04/14 11:01:01;;;;;;;7.87;5.07;;;16.20;63.70;;;;;;5040289;28;20293;-70
2022/04/14 11:03:46;;;;;;;11.47;5.73;;;16.30;63.20;;;;;;5045698;28;20660;-70
2022/04/14 11:06:42;;;;;;;9.35;5.28;;;16.40;63.00;;;;;;5070220;28;20048;-70
2022/04/14 11:09:43;;;;;;;8.30;5.15;;;16.60;63.10;;;;;;5062067;28;20061;-70
2022/04/14 11:12:23;;;;;;;6.60;3.77;;;16.60;61.70;;;;;;4995479;28;20059;-70
2022/04/14 11:14:54;;;;;;;6.70;3.57;;;16.50;61.40;;;;;;5036418;28;20369;-70
2022/04/14 11:17:38;;;;;;;7.07;4.13;;;16.60;60.70;;;;;;5035956;28;20636;-71
2022/04/14 11:20:18;;;;;;;12.47;4.80;;;16.60;60.60;;;;;;5034192;28;20283;-71
2022/04/14 11:23:07;;;;;;;7.37;4.00;;;16.70;60.50;;;;;;5050380;28;20309;-71
2022/04/14 11:25:42;;;;;;;6.47;4.10;;;16.80;61.00;;;;;;5033668;28;20286;-71
2022/04/14 11:28:17;;;;;;;8.93;4.63;;;16.80;59.80;;;;;;5050683;28;20290;-71
2022/04/14 11:30:43;;;;;;;6.97;4.60;;;16.80;61.00;;;;;;5050783;28;20485;-71
2022/04/14 11:33:42;;;;;;;5.43;2.67;;;16.90;60.50;;;;;;5034405;28;20318;-71
2022/04/14 11:36:19;;;;;;;7.40;3.90;;;17.10;59.90;;;;;;5020604;28;20660;-71
2022/04/14 11:38:55;;;;;;;5.67;3.33;;;17.10;59.40;;;;;;5054477;28;20836;-71
2022/04/14 11:41:35;;;;;;;6.27;2.90;;;17.00;59.80;;;;;;5050274;28;20309;-71
2022/04/14 11:44:02;;;;;;;5.90;3.33;;;17.10;59.40;;;;;;5045903;28;20298;-70
2022/04/14 11:46:29;;;;;;;6.07;3.10;;;17.00;59.20;;;;;;5045105;28;20278;-71
2022/04/14 11:48:55;;;;;;;8.33;3.53;;;17.00;59.50;;;;;;5033010;28;20286;-71
2022/04/14 11:51:21;;;;;;;7.37;3.70;;;17.00;59.10;;;;;;5049525;28;20798;-71
2022/04/14 11:53:46;;;;;;;7.27;3.20;;;16.80;59.00;;;;;;5016774;28;20044;-71
2022/04/14 11:56:17;;;;;;;5.73;3.00;;;16.80;59.40;;;;;;5033813;28;20094;-70
2022/04/14 11:58:43;;;;;;;7.97;3.23;;;16.80;59.40;;;;;;5041551;28;20044;-70
2022/04/14 12:01:09;;;;;;;7.70;2.60;;;16.70;59.70;;;;;;5027376;28;20620;-70
2022/04/14 12:03:35;;;;;;;7.33;2.70;;;16.50;58.50;;;;;;5025969;28;20369;-71
2022/04/14 12:06:06;;;;;;;4.73;2.57;;;16.40;59.60;;;;;;5049865;28;20444;-71
2022/04/14 12:08:32;;;;;;;5.60;2.90;;;16.50;60.00;;;;;;5050001;28;20048;-71
2022/04/14 12:11:28;;;;;;;6.20;3.10;;;16.60;59.70;;;;;;5051780;28;20287;-71
2022/04/14 12:13:54;;;;;;;7.28;3.08;;;16.80;60.00;;;;;;5065244;28;20276;-71
2022/04/14 12:16:20;;;;;;;7.03;3.20;;;17.00;59.90;;;;;;5023088;28;20111;-71
2022/04/14 12:18:55;;;;;;;4.77;3.07;;;17.20;59.90;;;;;;5038344;28;20044;-71
2022/04/14 12:21:22;;;;;;;;;;;17.40;58.90;;;;;;5038275;28;20043;-71
2022/04/14 12:23:50;;;;;;;5.70;3.10;;;17.40;58.10;;;;;;5036341;28;19924;-71
2022/04/14 12:26:17;;;;;;;5.87;3.17;;;17.40;59.60;;;;;;5056191;28;20290;-70
2022/04/14 12:28:45;;;;;;;6.93;3.30;;;17.50;58.20;;;;;;5053606;28;20379;-70
2022/04/14 12:31:12;;;;;;;5.17;2.60;;;17.60;59.20;;;;;;5036139;28;20333;-71
2022/04/14 12:33:38;;;;;;;6.23;2.40;;;17.70;56.90;;;;;;5040461;28;20317;-71
2022/04/14 12:36:09;;;;;;;8.20;3.47;;;17.70;57.00;;;;;;5057141;28;20725;-71
2022/04/14 12:38:45;;;;;;;5.37;2.80;;;17.70;57.20;;;;;;5056360;28;20043;-71
2022/04/14 12:41:19;;;;;;;9.13;3.30;;;17.90;57.50;;;;;;5033895;28;20289;-71
2022/04/14 12:43:47;;;;;;;10.30;3.97;;;18.00;57.20;;;;;;5064355;28;20641;-71